Time;durP1;ratioP1;P1;durP2;ratioP2;P2;SDS_P1;SDS_P2;PMS_P1;PMS_P2;Temp;Humidity;BMP_temperature;BMP_pressure;BME280_temperature;BME280_humidity;BME280_pressure;Samples;Min_cycle;Max_cycle;Signal;HPM_P1;HPM_P2
2022/04/10 00:24:00;;;;;;;25.88;12.77;;;;;;;;;;4187561;34;20322;-67
2022/04/10 00:26:26;;;;;;;26.17;14.02;;;;;;;;;;4190494;34;20133;-66
2022/04/10 00:28:53;;;;;;;33.33;13.25;;;;;;;;;;4152383;34;20136;-66
2022/04/10 00:31:19;;;;;;;29.77;14.90;;;;;;;;;;4176644;34;20534;-67
2022/04/10 00:33:46;;;;;;;37.88;15.65;;;;;;;;;;4176850;34;20590;-64
2022/04/10 00:36:12;;;;;;;43.45;16.73;;;;;;;;;;4176806;34;20193;-63
2022/04/10 00:38:38;;;;;;;54.25;17.65;;;;;;;;;;4176725;34;20141;-63
2022/04/10 00:41:05;;;;;;;67.90;19.20;;;;;;;;;;4164112;34;20214;-67
2022/04/10 00:43:32;;;;;;;72.55;17.25;;;;;;;;;;4176459;34;20128;-67
2022/04/10 00:45:59;;;;;;;77.03;20.08;;;;;;;;;;4176579;34;20117;-67
2022/04/10 00:48:25;;;;;;;36.45;15.90;;;;;;;;;;4176477;34;20546;-67
2022/04/10 00:53:37;;;;;;;39.78;15.52;;;;;;;;;;4176624;34;20141;-64
2022/04/10 00:56:04;;;;;;;38.97;14.65;;;;;;;;;;4163819;34;20194;-64
2022/04/10 00:58:31;;;;;;;33.97;13.82;;;;;;;;;;4163565;34;20162;-64
2022/04/10 01:00:58;;;;;;;25.73;14.57;;;;;;;;;;4152333;34;20134;-64
2022/04/10 01:03:24;;;;;;;24.63;12.70;;;;;;;;;;4176321;34;20146;-68
2022/04/10 01:05:50;;;;;;;19.92;11.27;;;;;;;;;;4176615;34;20218;-68
2022/04/10 01:08:16;;;;;;;22.13;11.70;;;;;;;;;;4176225;34;20226;-68
2022/04/10 01:10:42;;;;;;;24.60;11.75;;;;;;;;;;4176570;34;20102;-68
2022/04/10 01:13:09;;;;;;;18.70;11.73;;;;;;;;;;4176350;34;20122;-68
2022/04/10 01:15:35;;;;;;;18.73;11.25;;;;;;;;;;4176262;34;20542;-68
2022/04/10 01:18:01;;;;;;;19.67;11.45;;;;;;;;;;4163559;34;20102;-68
2022/04/10 01:20:28;;;;;;;20.83;10.57;;;;;;;;;;4163161;34;20114;-68
2022/04/10 01:22:54;;;;;;;23.98;12.73;;;;;;;;;;4176011;34;20613;-68
2022/04/10 01:25:20;;;;;;;19.50;11.77;;;;;;;;;;4163408;34;20126;-68
2022/04/10 01:27:47;;;;;;;23.77;13.07;;;;;;;;;;4176142;34;20120;-68
2022/04/10 01:30:14;;;;;;;17.37;11.30;;;;;;;;;;4163452;34;20173;-68
2022/04/10 01:32:40;;;;;;;23.08;13.95;;;;;;;;;;4176283;34;20119;-67
2022/04/10 01:35:06;;;;;;;21.58;12.70;;;;;;;;;;4163268;34;20130;-67
2022/04/10 01:37:34;;;;;;;23.65;13.98;;;;;;;;;;4175976;34;20554;-67
2022/04/10 01:40:00;;;;;;;23.85;14.15;;;;;;;;;;4176852;34;20317;-67
2022/04/10 01:42:26;;;;;;;24.90;13.20;;;;;;;;;;4178290;34;20130;-68
2022/04/10 01:44:52;;;;;;;22.20;13.35;;;;;;;;;;4178414;34;20129;-67
2022/04/10 01:47:18;;;;;;;20.23;12.40;;;;;;;;;;4178097;34;20130;-67
2022/04/10 01:49:44;;;;;;;19.77;12.05;;;;;;;;;;4178042;34;20156;-67
2022/04/10 01:52:10;;;;;;;19.50;11.98;;;;;;;;;;4178100;34;20114;-67
2022/04/10 01:54:37;;;;;;;19.67;13.13;;;;;;;;;;4178019;34;20519;-67
2022/04/10 01:57:04;;;;;;;22.10;13.75;;;;;;;;;;4177969;34;20114;-67
2022/04/10 01:59:30;;;;;;;26.35;13.32;;;;;;;;;;4177987;34;20202;-66
2022/04/10 02:01:56;;;;;;;28.27;14.18;;;;;;;;;;4178269;34;20094;-66
2022/04/10 02:04:22;;;;;;;22.83;12.50;;;;;;;;;;4178234;34;20117;-66
2022/04/10 02:06:48;;;;;;;22.13;13.40;;;;;;;;;;4177941;34;20647;-66
2022/04/10 02:09:14;;;;;;;18.80;12.13;;;;;;;;;;4177984;34;20455;-66
2022/04/10 02:11:40;;;;;;;18.08;11.95;;;;;;;;;;4177919;34;20592;-66
2022/04/10 02:14:07;;;;;;;19.98;11.93;;;;;;;;;;4178115;34;20122;-67
2022/04/10 02:16:33;;;;;;;19.12;10.93;;;;;;;;;;4165283;34;20122;-67
2022/04/10 02:18:59;;;;;;;18.05;11.43;;;;;;;;;;4177856;34;20606;-67
2022/04/10 02:21:25;;;;;;;18.77;11.52;;;;;;;;;;4177811;34;20541;-67
2022/04/10 02:23:51;;;;;;;18.67;12.88;;;;;;;;;;4177706;34;20632;-67
2022/04/10 02:26:17;;;;;;;22.62;12.90;;;;;;;;;;4178086;34;20147;-68
2022/04/10 02:28:43;;;;;;;24.83;15.00;;;;;;;;;;4177711;34;20807;-68
2022/04/10 02:31:09;;;;;;;23.67;13.93;;;;;;;;;;4177698;34;20132;-68
2022/04/10 02:33:35;;;;;;;23.73;14.43;;;;;;;;;;4177713;34;20591;-67
2022/04/10 02:36:02;;;;;;;30.10;15.45;;;;;;;;;;4177994;34;20122;-67
2022/04/10 02:38:28;;;;;;;26.42;16.25;;;;;;;;;;4164767;34;20595;-67
2022/04/10 02:40:54;;;;;;;23.20;15.88;;;;;;;;;;4177702;34;20141;-67
2022/04/10 02:43:20;;;;;;;24.50;15.50;;;;;;;;;;4177727;34;20185;-67
2022/04/10 02:45:46;;;;;;;24.02;14.90;;;;;;;;;;4177677;34;20174;-67
2022/04/10 02:48:12;;;;;;;23.48;14.32;;;;;;;;;;4177948;34;20130;-67
2022/04/10 02:50:38;;;;;;;20.08;12.48;;;;;;;;;;4177524;34;20529;-67
2022/04/10 02:53:05;;;;;;;19.00;13.93;;;;;;;;;;4177742;34;20618;-68
2022/04/10 02:55:31;;;;;;;21.80;14.10;;;;;;;;;;4177463;34;20197;-67
2022/04/10 02:57:57;;;;;;;18.52;13.18;;;;;;;;;;4177402;34;20558;-67
2022/04/10 03:00:23;;;;;;;20.05;12.73;;;;;;;;;;4177393;34;20126;-66
2022/04/10 03:02:49;;;;;;;16.85;11.75;;;;;;;;;;4177644;34;20110;-67
2022/04/10 03:05:15;;;;;;;18.45;13.13;;;;;;;;;;4177492;34;20087;-67
2022/04/10 03:07:41;;;;;;;19.80;12.82;;;;;;;;;;4177413;34;20117;-67
2022/04/10 03:10:07;;;;;;;22.20;13.38;;;;;;;;;;4177435;34;20118;-67
2022/04/10 03:12:33;;;;;;;20.65;13.88;;;;;;;;;;4177449;34;20117;-67
2022/04/10 03:14:59;;;;;;;19.80;12.80;;;;;;;;;;4177389;34;21000;-67
2022/04/10 03:17:25;;;;;;;22.17;14.55;;;;;;;;;;4164959;34;20222;-67
2022/04/10 03:19:51;;;;;;;21.85;14.30;;;;;;;;;;4177458;34;20121;-67
2022/04/10 03:22:17;;;;;;;19.87;13.25;;;;;;;;;;4177395;34;20503;-67
2022/04/10 03:24:43;;;;;;;20.60;13.07;;;;;;;;;;4177521;34;20521;-66
2022/04/10 03:27:09;;;;;;;29.98;17.27;;;;;;;;;;4177431;34;20522;-67
2022/04/10 03:29:35;;;;;;;27.00;17.25;;;;;;;;;;4177160;34;20467;-70
2022/04/10 03:32:01;;;;;;;26.12;13.65;;;;;;;;;;4177271;34;20209;-68
2022/04/10 03:34:27;;;;;;;19.17;12.48;;;;;;;;;;4177178;34;20120;-68
2022/04/10 03:36:53;;;;;;;21.42;13.77;;;;;;;;;;4177193;34;20467;-67
2022/04/10 03:39:19;;;;;;;20.25;13.55;;;;;;;;;;4177182;34;20109;-68
2022/04/10 03:41:45;;;;;;;21.33;14.32;;;;;;;;;;4177188;34;20091;-68
2022/04/10 03:44:11;;;;;;;29.17;16.17;;;;;;;;;;4177105;34;20205;-68
2022/04/10 03:46:37;;;;;;;25.70;16.55;;;;;;;;;;4177339;34;20122;-68
2022/04/10 03:49:03;;;;;;;27.20;16.50;;;;;;;;;;4177385;34;20514;-68
2022/04/10 03:51:29;;;;;;;27.13;15.77;;;;;;;;;;4177027;34;20114;-67
2022/04/10 03:53:55;;;;;;;29.70;16.55;;;;;;;;;;4164532;34;20193;-67
2022/04/10 03:56:21;;;;;;;28.87;17.65;;;;;;;;;;4176860;34;20136;-67
2022/04/10 03:58:47;;;;;;;32.60;16.98;;;;;;;;;;4176895;34;20146;-67
2022/04/10 04:01:13;;;;;;;31.30;16.52;;;;;;;;;;4176914;34;20667;-68
2022/04/10 04:03:39;;;;;;;28.92;16.70;;;;;;;;;;4176598;34;20309;-68
2022/04/10 04:06:05;;;;;;;25.17;15.45;;;;;;;;;;4177080;34;20182;-66
2022/04/10 04:08:31;;;;;;;24.70;15.30;;;;;;;;;;4176867;34;20218;-67
2022/04/10 04:10:58;;;;;;;26.62;13.95;;;;;;;;;;4176944;34;20118;-66
2022/04/10 04:13:24;;;;;;;20.77;12.52;;;;;;;;;;4176637;34;20518;-66
2022/04/10 04:15:51;;;;;;;24.02;13.55;;;;;;;;;;4176919;34;20211;-67
2022/04/10 04:18:17;;;;;;;24.35;13.27;;;;;;;;;;4176896;34;20191;-67
2022/04/10 04:20:43;;;;;;;26.98;14.27;;;;;;;;;;4177080;34;20534;-67
2022/04/10 04:23:09;;;;;;;28.42;16.12;;;;;;;;;;4163902;34;20113;-66
2022/04/10 04:25:35;;;;;;;26.98;15.77;;;;;;;;;;4176592;34;20218;-67
2022/04/10 04:28:01;;;;;;;23.23;14.25;;;;;;;;;;4176656;34;20126;-67
2022/04/10 04:30:28;;;;;;;28.40;14.82;;;;;;;;;;4164140;34;20113;-68
2022/04/10 04:32:56;;;;;;;23.48;13.20;;;;;;;;;;4176895;34;20108;-68
2022/04/10 04:35:23;;;;;;;25.25;14.13;;;;;;;;;;4176528;34;20210;-68
2022/04/10 04:37:49;;;;;;;24.70;12.98;;;;;;;;;;4176744;34;20561;-68
2022/04/10 04:40:15;;;;;;;24.00;13.90;;;;;;;;;;4176531;34;20090;-68
2022/04/10 04:42:42;;;;;;;27.48;15.13;;;;;;;;;;4176877;34;20518;-68
2022/04/10 04:45:09;;;;;;;22.08;13.85;;;;;;;;;;4176520;34;20201;-68
2022/04/10 04:47:36;;;;;;;28.52;14.60;;;;;;;;;;4163999;34;20440;-68
2022/04/10 04:50:02;;;;;;;28.77;17.15;;;;;;;;;;4175287;34;20098;-72
2022/04/10 04:52:28;;;;;;;28.95;18.00;;;;;;;;;;4176487;34;20443;-71
2022/04/10 04:54:54;;;;;;;26.73;17.00;;;;;;;;;;4176381;34;20185;-71
2022/04/10 04:57:20;;;;;;;25.17;16.60;;;;;;;;;;4176262;34;20197;-71
2022/04/10 04:59:46;;;;;;;27.30;17.17;;;;;;;;;;4176594;34;20455;-64
2022/04/10 05:02:12;;;;;;;28.30;17.00;;;;;;;;;;4152344;34;20126;-63
2022/04/10 05:04:38;;;;;;;22.05;14.80;;;;;;;;;;4176536;34;20126;-63
2022/04/10 05:07:04;;;;;;;29.63;16.62;;;;;;;;;;4141008;34;20227;-63
2022/04/10 05:09:30;;;;;;;23.50;15.70;;;;;;;;;;4163526;34;20125;-65
2022/04/10 05:11:56;;;;;;;27.70;16.33;;;;;;;;;;4141290;34;20452;-65
2022/04/10 05:14:22;;;;;;;27.70;17.77;;;;;;;;;;4176789;34;20201;-65
2022/04/10 05:16:48;;;;;;;26.95;16.15;;;;;;;;;;4178225;34;20605;-65
2022/04/10 05:19:14;;;;;;;24.12;16.02;;;;;;;;;;4178374;34;20588;-65
2022/04/10 05:21:40;;;;;;;25.77;16.15;;;;;;;;;;4154176;34;20606;-65
2022/04/10 05:24:06;;;;;;;25.85;15.23;;;;;;;;;;4165685;34;20110;-64
2022/04/10 05:26:32;;;;;;;27.35;16.02;;;;;;;;;;4178404;34;20190;-65
2022/04/10 05:28:58;;;;;;;31.40;18.62;;;;;;;;;;4178262;34;20098;-65
2022/04/10 05:31:24;;;;;;;25.62;15.55;;;;;;;;;;4178215;34;20194;-64
2022/04/10 05:33:51;;;;;;;27.45;15.48;;;;;;;;;;4178054;34;20552;-65
2022/04/10 05:36:17;;;;;;;25.73;16.95;;;;;;;;;;4165659;34;20109;-65
2022/04/10 05:38:45;;;;;;;24.35;16.30;;;;;;;;;;4178040;34;20117;-65
2022/04/10 05:41:13;;;;;;;30.05;16.62;;;;;;;;;;4165833;34;20128;-65
2022/04/10 05:43:39;;;;;;;26.08;16.62;;;;;;;;;;4178191;34;20138;-65
2022/04/10 05:46:05;;;;;;;23.23;16.12;;;;;;;;;;4178280;34;20118;-65
2022/04/10 05:48:31;;;;;;;22.95;15.30;;;;;;;;;;4165284;34;20158;-65
2022/04/10 05:50:57;;;;;;;23.58;16.02;;;;;;;;;;4165318;34;20102;-65
2022/04/10 05:53:26;;;;;;;25.20;15.98;;;;;;;;;;4165363;34;20110;-64
2022/04/10 05:55:52;;;;;;;23.12;14.87;;;;;;;;;;4178333;34;20109;-64
2022/04/10 05:58:18;;;;;;;29.58;18.25;;;;;;;;;;4178081;34;20119;-63
2022/04/10 06:00:44;;;;;;;24.15;15.05;;;;;;;;;;4177997;34;20106;-64
2022/04/10 06:03:10;;;;;;;21.65;14.70;;;;;;;;;;4178139;34;20133;-63
2022/04/10 06:05:36;;;;;;;23.42;14.60;;;;;;;;;;4178209;34;20138;-66
2022/04/10 06:08:02;;;;;;;24.15;15.48;;;;;;;;;;4178119;34;20144;-66
2022/04/10 06:10:28;;;;;;;25.92;15.35;;;;;;;;;;4178153;34;20106;-65
2022/04/10 06:12:54;;;;;;;25.60;16.10;;;;;;;;;;4177866;34;20179;-65
2022/04/10 06:15:21;;;;;;;31.12;18.30;;;;;;;;;;4177852;34;20167;-65
2022/04/10 06:17:47;;;;;;;31.15;17.23;;;;;;;;;;4177788;34;20531;-66
2022/04/10 06:20:13;;;;;;;31.08;17.80;;;;;;;;;;4178057;34;20105;-65
2022/04/10 06:22:39;;;;;;;24.08;16.20;;;;;;;;;;4165000;34;20202;-65
2022/04/10 06:25:05;;;;;;;30.40;18.42;;;;;;;;;;4164785;34;20620;-65
2022/04/10 06:27:31;;;;;;;28.67;15.32;;;;;;;;;;4164858;34;20117;-64
2022/04/10 06:29:57;;;;;;;27.33;15.32;;;;;;;;;;4165288;34;20463;-63
2022/04/10 06:32:24;;;;;;;29.12;15.70;;;;;;;;;;4164832;34;20163;-62
2022/04/10 06:34:50;;;;;;;28.00;14.87;;;;;;;;;;4164978;34;20110;-62
2022/04/10 06:37:16;;;;;;;25.23;15.38;;;;;;;;;;4177847;34;20460;-63
2022/04/10 06:39:42;;;;;;;25.70;15.05;;;;;;;;;;4165092;34;20121;-63
2022/04/10 06:42:09;;;;;;;34.58;17.40;;;;;;;;;;4164846;34;20149;-64
2022/04/10 06:44:35;;;;;;;29.85;17.50;;;;;;;;;;4177621;34;20091;-64
2022/04/10 06:47:01;;;;;;;29.12;16.15;;;;;;;;;;4177431;34;20195;-63
2022/04/10 06:49:27;;;;;;;31.50;15.25;;;;;;;;;;4164902;34;20091;-64
2022/04/10 06:51:53;;;;;;;28.10;14.85;;;;;;;;;;4156287;34;20108;-64
2022/04/10 06:54:20;;;;;;;24.75;12.93;;;;;;;;;;4170608;34;20185;-63
2022/04/10 06:56:46;;;;;;;25.48;13.18;;;;;;;;;;4160904;34;20115;-63
2022/04/10 06:59:13;;;;;;;26.20;14.35;;;;;;;;;;4163736;34;20126;-62
2022/04/10 07:01:39;;;;;;;26.05;13.57;;;;;;;;;;4172904;34;20145;-63
2022/04/10 07:04:05;;;;;;;25.98;13.68;;;;;;;;;;4170372;34;20145;-64
2022/04/10 07:06:31;;;;;;;22.80;13.40;;;;;;;;;;4163898;34;20118;-62
2022/04/10 07:08:57;;;;;;;23.10;13.02;;;;;;;;;;4182067;34;20450;-62
2022/04/10 07:11:24;;;;;;;23.65;13.45;;;;;;;;;;4164221;34;20111;-64
2022/04/10 07:13:50;;;;;;;24.00;12.63;;;;;;;;;;4186528;34;20106;-63
2022/04/10 07:16:16;;;;;;;23.62;13.32;;;;;;;;;;4176876;34;20475;-63
2022/04/10 07:18:42;;;;;;;24.02;14.20;;;;;;;;;;4171085;34;20139;-63
2022/04/10 07:21:08;;;;;;;27.13;14.75;;;;;;;;;;4150609;34;20126;-64
2022/04/10 07:23:44;;;;;;;26.77;15.07;;;;;;;;;;4161733;34;20122;-63
2022/04/10 07:26:12;;;;;;;27.37;15.73;;;;;;;;;;4148627;34;20592;-64
2022/04/10 07:28:38;;;;;;;26.83;16.00;;;;;;;;;;4161562;34;20110;-63
2022/04/10 07:31:08;;;;;;;24.98;15.70;;;;;;;;;;4148998;34;20114;-63
2022/04/10 07:33:34;;;;;;;30.27;15.15;;;;;;;;;;4161350;34;20115;-63
2022/04/10 07:36:01;;;;;;;27.60;15.82;;;;;;;;;;4161713;34;20119;-64
2022/04/10 07:38:27;;;;;;;35.08;18.65;;;;;;;;;;4160669;34;20539;-66
2022/04/10 07:40:53;;;;;;;25.67;15.70;;;;;;;;;;4173351;34;20590;-65
2022/04/10 07:43:19;;;;;;;24.75;16.25;;;;;;;;;;4160165;34;20107;-64
2022/04/10 07:48:30;;;;;;;30.62;17.33;;;;;;;;;;4161313;34;20539;-65
2022/04/10 07:50:57;;;;;;;28.52;16.33;;;;;;;;;;4161380;34;20227;-65
2022/04/10 07:53:24;;;;;;;29.87;16.10;;;;;;;;;;4148982;34;20130;-65
2022/04/10 07:55:50;;;;;;;30.48;18.08;;;;;;;;;;4161639;34;20207;-65
2022/04/10 07:58:16;;;;;;;31.25;19.40;;;;;;;;;;4162760;34;20106;-65
2022/04/10 08:00:42;;;;;;;25.27;16.62;;;;;;;;;;4173432;34;20440;-65
2022/04/10 08:03:08;;;;;;;27.52;16.87;;;;;;;;;;4163219;34;20114;-62
2022/04/10 08:05:34;;;;;;;28.12;17.23;;;;;;;;;;4173225;34;20146;-62
2022/04/10 08:08:00;;;;;;;28.00;17.83;;;;;;;;;;4163380;34;20098;-62
2022/04/10 08:10:26;;;;;;;25.85;15.75;;;;;;;;;;4162824;34;20199;-62
2022/04/10 08:12:52;;;;;;;28.27;17.45;;;;;;;;;;4163315;34;20235;-63
2022/04/10 08:15:18;;;;;;;25.10;16.60;;;;;;;;;;4163160;34;20126;-63
2022/04/10 08:17:44;;;;;;;26.90;17.50;;;;;;;;;;4163047;34;20099;-62
2022/04/10 08:20:12;;;;;;;23.87;15.60;;;;;;;;;;4163157;34;20444;-62
2022/04/10 08:22:39;;;;;;;30.08;18.27;;;;;;;;;;4172943;34;20107;-63
2022/04/10 08:25:07;;;;;;;29.40;18.92;;;;;;;;;;4163145;34;20150;-62
2022/04/10 08:27:34;;;;;;;27.37;17.85;;;;;;;;;;4162925;34;20228;-62
2022/04/10 08:30:00;;;;;;;32.10;17.67;;;;;;;;;;4150598;34;20126;-62
2022/04/10 08:32:26;;;;;;;32.45;20.35;;;;;;;;;;4163010;34;20182;-66
2022/04/10 08:34:52;;;;;;;31.48;18.37;;;;;;;;;;4162933;34;20133;-64
2022/04/10 08:37:18;;;;;;;30.55;19.10;;;;;;;;;;4149729;34;20190;-63
2022/04/10 08:39:44;;;;;;;31.27;18.42;;;;;;;;;;4148417;34;20522;-63
2022/04/10 08:42:10;;;;;;;26.50;15.88;;;;;;;;;;4148147;34;20552;-64
2022/04/10 08:44:37;;;;;;;31.62;19.23;;;;;;;;;;4172674;34;20178;-63
2022/04/10 08:47:03;;;;;;;28.87;17.17;;;;;;;;;;4150630;34;20109;-64
2022/04/10 08:49:30;;;;;;;31.87;19.87;;;;;;;;;;4151463;34;20572;-63
2022/04/10 08:51:57;;;;;;;38.70;20.10;;;;;;;;;;4164862;34;20131;-64
2022/04/10 08:54:24;;;;;;;33.15;17.45;;;;;;;;;;4165163;34;20138;-64
2022/04/10 08:56:50;;;;;;;32.13;18.85;;;;;;;;;;4164850;34;20388;-63
2022/04/10 08:59:20;;;;;;;34.08;20.35;;;;;;;;;;4163450;34;20134;-64
2022/04/10 09:01:56;;;;;;;37.17;18.83;;;;;;;;;;4164760;34;20112;-63
2022/04/10 09:04:23;;;;;;;33.13;18.30;;;;;;;;;;4164811;34;20500;-64
2022/04/10 09:07:05;;;;;;;29.52;16.83;;;;;;;;;;4152287;34;20483;-64
2022/04/10 09:09:32;;;;;;;33.28;17.98;;;;;;;;;;4164722;34;20534;-64
2022/04/10 09:11:58;;;;;;;30.70;17.92;;;;;;;;;;4164849;34;20126;-63
2022/04/10 09:14:38;;;;;;;24.23;15.38;;;;;;;;;;4152135;34;20107;-64
2022/04/10 09:17:17;;;;;;;32.17;18.42;;;;;;;;;;4164582;34;20521;-64
2022/04/10 09:19:45;;;;;;;27.83;16.73;;;;;;;;;;4151977;34;20106;-64
2022/04/10 09:22:28;;;;;;;31.77;18.12;;;;;;;;;;4163248;34;20099;-64
2022/04/10 09:25:23;;;;;;;26.30;15.32;;;;;;;;;;4152022;34;20105;-64
2022/04/10 09:27:50;;;;;;;27.90;15.52;;;;;;;;;;4164342;34;20141;-63
2022/04/10 09:30:18;;;;;;;26.60;15.88;;;;;;;;;;4164622;34;20114;-64
2022/04/10 09:32:47;;;;;;;31.10;19.08;;;;;;;;;;4164585;34;20199;-63
2022/04/10 09:35:23;;;;;;;30.42;18.87;;;;;;;;;;4152137;34;20107;-65
2022/04/10 09:37:54;;;;;;;27.45;17.77;;;;;;;;;;4151791;34;20130;-65
2022/04/10 09:40:27;;;;;;;25.23;15.48;;;;;;;;;;4164486;34;20094;-64
2022/04/10 09:42:57;;;;;;;26.42;14.95;;;;;;;;;;4174354;34;20126;-64
2022/04/10 09:45:27;;;;;;;23.33;14.77;;;;;;;;;;4164754;34;20173;-64
2022/04/10 09:47:53;;;;;;;28.75;15.32;;;;;;;;;;4164588;34;20502;-64
2022/04/10 09:50:29;;;;;;;29.75;16.30;;;;;;;;;;4164443;34;20127;-64
2022/04/10 09:52:55;;;;;;;25.55;15.50;;;;;;;;;;4163892;34;20186;-64
2022/04/10 09:55:38;;;;;;;25.62;17.00;;;;;;;;;;4164280;34;20175;-64
2022/04/10 09:58:10;;;;;;;22.70;13.52;;;;;;;;;;4164352;34;20203;-67
2022/04/10 10:00:38;;;;;;;25.98;13.95;;;;;;;;;;4173753;34;20106;-62
2022/04/10 10:03:05;;;;;;;23.15;15.32;;;;;;;;;;4164242;34;20134;-62
2022/04/10 10:05:31;;;;;;;20.50;13.70;;;;;;;;;;4164265;34;20111;-61
2022/04/10 10:07:59;;;;;;;32.70;14.77;;;;;;;;;;4151509;34;20103;-61
2022/04/10 10:10:29;;;;;;;27.73;13.80;;;;;;;;;;4164275;34;20098;-61
2022/04/10 10:12:56;;;;;;;23.92;14.52;;;;;;;;;;4164331;34;20118;-61
2022/04/10 10:15:22;;;;;;;35.92;15.30;;;;;;;;;;4164466;34;20115;-61
2022/04/10 10:17:48;;;;;;;25.55;15.52;;;;;;;;;;4164267;34;20115;-62
2022/04/10 10:20:15;;;;;;;27.92;15.50;;;;;;;;;;4164079;34;20130;-63
2022/04/10 10:22:41;;;;;;;24.55;15.23;;;;;;;;;;4151309;34;20527;-62
2022/04/10 10:25:15;;;;;;;25.05;14.75;;;;;;;;;;4164151;34;20118;-61
2022/04/10 10:28:08;;;;;;;24.40;15.18;;;;;;;;;;4164053;34;20130;-61
2022/04/10 10:30:52;;;;;;;24.48;14.13;;;;;;;;;;4174496;34;20189;-61
2022/04/10 10:33:21;;;;;;;22.62;13.40;;;;;;;;;;4173938;34;20187;-61
2022/04/10 10:35:53;;;;;;;19.05;11.90;;;;;;;;;;4173950;34;20483;-62
2022/04/10 10:38:31;;;;;;;20.65;12.40;;;;;;;;;;4173893;34;20126;-61
2022/04/10 10:41:29;;;;;;;20.40;11.77;;;;;;;;;;4162480;34;20109;-61
2022/04/10 10:43:56;;;;;;;17.17;11.70;;;;;;;;;;4164077;34;20195;-62
2022/04/10 10:46:21;;;;;;;17.50;11.40;;;;;;;;;;4164234;34;20126;-61
2022/04/10 10:48:50;;;;;;;18.80;11.80;;;;;;;;;;4164094;34;20130;-61
2022/04/10 10:51:16;;;;;;;18.73;10.95;;;;;;;;;;4163808;34;20125;-61
2022/04/10 10:53:56;;;;;;;22.02;14.05;;;;;;;;;;4163788;34;20122;-61
2022/04/10 10:56:36;;;;;;;17.80;12.40;;;;;;;;;;4163863;34;20131;-62
2022/04/10 10:59:26;;;;;;;18.10;13.30;;;;;;;;;;4164059;34;20491;-61
2022/04/10 11:01:53;;;;;;;21.35;14.40;;;;;;;;;;4151348;34;20130;-61
2022/04/10 11:04:20;;;;;;;21.17;13.68;;;;;;;;;;4164014;34;20118;-61
2022/04/10 11:06:50;;;;;;;20.45;13.07;;;;;;;;;;4163813;34;20440;-61
2022/04/10 11:09:29;;;;;;;20.62;13.45;;;;;;;;;;4164047;34;20099;-61
2022/04/10 11:11:57;;;;;;;22.90;13.68;;;;;;;;;;4163628;34;20110;-60
2022/04/10 11:14:36;;;;;;;19.27;12.95;;;;;;;;;;4162681;34;20091;-62
2022/04/10 11:17:39;;;;;;;19.90;13.40;;;;;;;;;;4177247;34;20134;-65
2022/04/10 11:20:08;;;;;;;17.95;11.43;;;;;;;;;;4176777;34;20103;-65
2022/04/10 11:22:35;;;;;;;18.52;13.20;;;;;;;;;;4187261;34;20141;-65
2022/04/10 11:25:10;;;;;;;17.27;12.93;;;;;;;;;;4175826;34;20110;-65
2022/04/10 11:27:50;;;;;;;22.95;14.10;;;;;;;;;;4177412;34;20146;-65
2022/04/10 11:30:30;;;;;;;19.48;13.00;;;;;;;;;;4177279;34;20094;-64
2022/04/10 11:32:58;;;;;;;18.80;11.82;;;;;;;;;;4177417;34;20107;-64
2022/04/10 11:35:30;;;;;;;20.52;13.02;;;;;;;;;;4187287;34;20154;-64
2022/04/10 11:38:01;;;;;;;21.23;13.68;;;;;;;;;;4177526;34;20107;-65
2022/04/10 11:40:31;;;;;;;17.27;12.88;;;;;;;;;;4164336;34;20110;-64
2022/04/10 11:42:58;;;;;;;19.30;11.88;;;;;;;;;;4176371;34;20126;-64
2022/04/10 11:45:27;;;;;;;17.33;11.40;;;;;;;;;;4172096;34;20135;-63
2022/04/10 11:47:53;;;;;;;21.62;13.95;;;;;;;;;;4168864;34;20186;-64
2022/04/10 11:50:28;;;;;;;18.60;11.27;;;;;;;;;;4167036;34;20528;-64
2022/04/10 11:53:11;;;;;;;17.50;11.98;;;;;;;;;;4168902;34;20304;-64
2022/04/10 11:55:40;;;;;;;19.15;11.23;;;;;;;;;;4170478;34;20133;-64
2022/04/10 11:58:12;;;;;;;14.48;10.25;;;;;;;;;;4169837;34;20243;-64
2022/04/10 12:00:44;;;;;;;20.73;11.10;;;;;;;;;;4170596;34;20523;-64
2022/04/10 12:03:10;;;;;;;19.02;12.05;;;;;;;;;;4170531;34;20190;-64
2022/04/10 12:05:36;;;;;;;16.65;12.07;;;;;;;;;;4174854;34;20124;-64
2022/04/10 12:08:04;;;;;;;26.33;13.98;;;;;;;;;;4176996;34;20543;-63
2022/04/10 12:10:31;;;;;;;29.48;18.25;;;;;;;;;;4176887;34;20631;-64
2022/04/10 12:12:57;;;;;;;26.75;17.00;;;;;;;;;;4177100;34;20118;-66
2022/04/10 12:15:24;;;;;;;23.35;14.90;;;;;;;;;;4164048;34;20121;-64
2022/04/10 12:18:04;;;;;;;28.27;17.40;;;;;;;;;;4163857;34;20617;-64
2022/04/10 12:20:30;;;;;;;36.67;18.75;;;;;;;;;;4176770;34;20463;-65
2022/04/10 12:22:56;;;;;;;34.22;21.33;;;;;;;;;;4163505;34;20554;-66
2022/04/10 12:25:22;;;;;;;37.92;23.95;;;;;;;;;;4163978;34;20093;-66
2022/04/10 12:27:49;;;;;;;43.58;23.77;;;;;;;;;;4176873;34;20095;-66
2022/04/10 12:30:17;;;;;;;38.80;24.33;;;;;;;;;;4176911;34;20107;-65
2022/04/10 12:32:43;;;;;;;42.33;25.02;;;;;;;;;;4176725;34;20471;-66
2022/04/10 12:35:13;;;;;;;40.17;24.65;;;;;;;;;;4176575;34;20148;-64
2022/04/10 12:37:46;;;;;;;40.58;24.60;;;;;;;;;;4186359;34;20121;-65
2022/04/10 12:40:13;;;;;;;47.10;26.62;;;;;;;;;;4176585;34;20189;-68
2022/04/10 12:42:43;;;;;;;50.45;27.70;;;;;;;;;;4186576;34;20118;-65
2022/04/10 12:45:11;;;;;;;46.28;26.15;;;;;;;;;;4163691;34;20099;-65
2022/04/10 12:47:42;;;;;;;50.78;29.65;;;;;;;;;;4163388;34;20499;-65
2022/04/10 12:50:10;;;;;;;60.63;32.22;;;;;;;;;;4175212;34;20115;-65
2022/04/10 12:52:40;;;;;;;61.90;33.90;;;;;;;;;;4163696;34;20130;-65
2022/04/10 12:55:20;;;;;;;51.20;29.90;;;;;;;;;;4176402;34;20478;-65
2022/04/10 12:57:59;;;;;;;56.08;30.05;;;;;;;;;;4163852;34;20133;-61
2022/04/10 13:00:31;;;;;;;53.13;30.05;;;;;;;;;;4186164;34;20130;-63
2022/04/10 13:02:59;;;;;;;45.40;26.20;;;;;;;;;;4176252;34;20221;-63
2022/04/10 13:05:25;;;;;;;51.00;26.52;;;;;;;;;;4176211;34;20463;-63
2022/04/10 13:07:58;;;;;;;50.40;26.12;;;;;;;;;;4175246;34;20562;-64
2022/04/10 13:10:28;;;;;;;45.00;22.15;;;;;;;;;;4176503;34;20145;-64
2022/04/10 13:13:07;;;;;;;34.05;20.77;;;;;;;;;;4176243;34;20122;-65
2022/04/10 13:15:35;;;;;;;33.08;20.67;;;;;;;;;;4176334;34;20611;-66
2022/04/10 13:18:03;;;;;;;42.08;20.65;;;;;;;;;;4162914;34;20111;-66
2022/04/10 13:20:29;;;;;;;32.60;19.37;;;;;;;;;;4176202;34;20736;-63
2022/04/10 13:22:56;;;;;;;31.25;18.73;;;;;;;;;;4176241;34;20518;-64
2022/04/10 13:25:24;;;;;;;37.28;20.98;;;;;;;;;;4175965;34;20109;-65
2022/04/10 13:27:53;;;;;;;30.12;19.17;;;;;;;;;;4175968;34;20167;-65
2022/04/10 13:30:19;;;;;;;34.13;19.35;;;;;;;;;;4176022;34;20119;-65
2022/04/10 13:32:45;;;;;;;33.03;18.58;;;;;;;;;;4175122;34;20137;-65
2022/04/10 13:35:11;;;;;;;30.77;18.50;;;;;;;;;;4176029;34;20137;-65
2022/04/10 13:37:37;;;;;;;33.45;19.12;;;;;;;;;;4165303;34;20130;-65
2022/04/10 13:40:04;;;;;;;35.17;21.52;;;;;;;;;;4178180;34;20199;-65
2022/04/10 13:42:34;;;;;;;39.50;23.92;;;;;;;;;;4177951;34;20121;-65
2022/04/10 13:45:01;;;;;;;47.92;25.88;;;;;;;;;;4175784;34;20141;-66
2022/04/10 13:47:27;;;;;;;39.72;21.58;;;;;;;;;;4176772;34;20103;-65
2022/04/10 13:49:53;;;;;;;39.67;20.23;;;;;;;;;;4176308;34;20290;-65
2022/04/10 13:52:19;;;;;;;35.10;20.52;;;;;;;;;;4165032;34;20182;-65
2022/04/10 13:54:45;;;;;;;52.95;23.83;;;;;;;;;;4177714;34;20110;-65
2022/04/10 13:57:11;;;;;;;39.53;21.92;;;;;;;;;;4165049;34;20128;-66
2022/04/10 13:59:37;;;;;;;37.78;23.12;;;;;;;;;;4177809;34;20546;-64
2022/04/10 14:02:04;;;;;;;44.40;22.40;;;;;;;;;;4177970;34;20118;-65
2022/04/10 14:04:30;;;;;;;32.38;17.50;;;;;;;;;;4153510;34;20090;-65
2022/04/10 14:06:56;;;;;;;28.60;15.63;;;;;;;;;;4177747;34;20114;-65
2022/04/10 14:09:23;;;;;;;32.70;16.00;;;;;;;;;;4177439;34;20094;-66
2022/04/10 14:11:49;;;;;;;26.73;15.75;;;;;;;;;;4177741;34;20150;-66
2022/04/10 14:14:16;;;;;;;30.12;17.55;;;;;;;;;;4177351;34;20133;-66
2022/04/10 14:16:42;;;;;;;28.98;16.27;;;;;;;;;;4177667;34;20103;-66
2022/04/10 14:19:08;;;;;;;27.30;16.62;;;;;;;;;;4177305;34;20105;-65
2022/04/10 14:21:36;;;;;;;25.20;13.15;;;;;;;;;;4177639;34;20506;-65
2022/04/10 14:24:03;;;;;;;21.10;12.77;;;;;;;;;;4164296;34;20129;-66
2022/04/10 14:26:29;;;;;;;18.70;11.82;;;;;;;;;;4177620;34;20187;-66
2022/04/10 14:28:55;;;;;;;23.92;12.85;;;;;;;;;;4177613;34;20201;-66
2022/04/10 14:31:21;;;;;;;21.80;12.88;;;;;;;;;;4177297;34;20098;-64
2022/04/10 14:33:47;;;;;;;21.12;13.85;;;;;;;;;;4176577;34;20165;-66
2022/04/10 14:36:13;;;;;;;28.08;15.85;;;;;;;;;;4177252;34;20213;-61
2022/04/10 14:38:39;;;;;;;30.65;15.00;;;;;;;;;;4187314;34;20540;-62
2022/04/10 14:41:07;;;;;;;33.00;16.33;;;;;;;;;;4177590;34;20281;-63
2022/04/10 14:43:33;;;;;;;26.85;14.23;;;;;;;;;;4187265;34;20141;-63
2022/04/10 14:45:59;;;;;;;23.67;13.95;;;;;;;;;;4187451;34;20138;-64
2022/04/10 14:48:25;;;;;;;18.33;10.52;;;;;;;;;;4177534;34;20114;-65